sensor_id;sensor_type;location;lat;lon;timestamp;P1;durP1;ratioP1;P2;durP2;ratioP2
32812;SDS011;19162;48.254;11.454;2022-12-04T00:00:36;21.45;;;19.15;;
32812;SDS011;19162;48.254;11.454;2022-12-04T00:03:36;19.05;;;17.00;;
32812;SDS011;19162;48.254;11.454;2022-12-04T00:06:37;19.92;;;18.05;;
32812;SDS011;19162;48.254;11.454;2022-12-04T00:09:37;20.02;;;18.02;;
32812;SDS011;19162;48.254;11.454;2022-12-04T00:12:37;18.75;;;16.88;;
32812;SDS011;19162;48.254;11.454;2022-12-04T00:15:40;18.73;;;16.85;;
32812;SDS011;19162;48.254;11.454;2022-12-04T00:18:40;21.42;;;19.33;;
32812;SDS011;19162;48.254;11.454;2022-12-04T00:21:40;20.97;;;18.87;;
32812;SDS011;19162;48.254;11.454;2022-12-04T00:24:40;19.03;;;17.13;;
32812;SDS011;19162;48.254;11.454;2022-12-04T00:27:41;20.17;;;18.08;;
32812;SDS011;19162;48.254;11.454;2022-12-04T00:30:41;20.48;;;18.38;;
32812;SDS011;19162;48.254;11.454;2022-12-04T00:33:42;19.35;;;17.42;;
32812;SDS011;19162;48.254;11.454;2022-12-04T00:36:43;20.60;;;18.52;;
32812;SDS011;19162;48.254;11.454;2022-12-04T00:39:43;20.97;;;18.90;;
32812;SDS011;19162;48.254;11.454;2022-12-04T00:42:43;20.63;;;18.63;;
32812;SDS011;19162;48.254;11.454;2022-12-04T00:45:44;22.35;;;20.15;;
32812;SDS011;19162;48.254;11.454;2022-12-04T00:48:44;19.60;;;17.80;;
32812;SDS011;19162;48.254;11.454;2022-12-04T00:51:44;20.20;;;18.20;;
32812;SDS011;19162;48.254;11.454;2022-12-04T00:54:45;20.73;;;18.65;;
32812;SDS011;19162;48.254;11.454;2022-12-04T00:57:45;19.92;;;18.13;;
32812;SDS011;19162;48.254;11.454;2022-12-04T01:00:45;21.98;;;19.95;;
32812;SDS011;19162;48.254;11.454;2022-12-04T01:03:46;22.45;;;20.27;;
32812;SDS011;19162;48.254;11.454;2022-12-04T01:06:46;22.77;;;20.58;;
32812;SDS011;19162;48.254;11.454;2022-12-04T01:09:46;22.23;;;20.00;;
32812;SDS011;19162;48.254;11.454;2022-12-04T01:12:50;21.77;;;19.67;;
32812;SDS011;19162;48.254;11.454;2022-12-04T01:15:50;22.13;;;20.10;;
32812;SDS011;19162;48.254;11.454;2022-12-04T01:18:51;24.92;;;22.23;;
32812;SDS011;19162;48.254;11.454;2022-12-04T01:21:51;25.27;;;22.83;;
32812;SDS011;19162;48.254;11.454;2022-12-04T01:24:54;22.80;;;20.50;;
32812;SDS011;19162;48.254;11.454;2022-12-04T01:27:54;24.08;;;19.92;;
32812;SDS011;19162;48.254;11.454;2022-12-04T01:31:02;21.53;;;18.53;;
32812;SDS011;19162;48.254;11.454;2022-12-04T01:34:03;22.35;;;19.42;;
32812;SDS011;19162;48.254;11.454;2022-12-04T01:37:03;20.60;;;17.80;;
32812;SDS011;19162;48.254;11.454;2022-12-04T01:40:03;21.95;;;19.63;;
32812;SDS011;19162;48.254;11.454;2022-12-04T01:43:04;19.02;;;17.17;;
32812;SDS011;19162;48.254;11.454;2022-12-04T01:46:05;19.75;;;17.65;;
32812;SDS011;19162;48.254;11.454;2022-12-04T01:49:06;19.33;;;17.33;;
32812;SDS011;19162;48.254;11.454;2022-12-04T01:52:11;19.27;;;17.55;;
32812;SDS011;19162;48.254;11.454;2022-12-04T01:55:13;18.73;;;16.83;;
32812;SDS011;19162;48.254;11.454;2022-12-04T01:58:13;19.67;;;17.63;;
32812;SDS011;19162;48.254;11.454;2022-12-04T02:01:14;18.65;;;16.73;;
32812;SDS011;19162;48.254;11.454;2022-12-04T02:04:14;19.13;;;16.90;;
32812;SDS011;19162;48.254;11.454;2022-12-04T02:07:14;19.50;;;16.40;;
32812;SDS011;19162;48.254;11.454;2022-12-04T02:10:15;20.63;;;18.20;;
32812;SDS011;19162;48.254;11.454;2022-12-04T02:13:20;17.33;;;15.65;;
32812;SDS011;19162;48.254;11.454;2022-12-04T02:19:47;18.13;;;16.15;;
32812;SDS011;19162;48.254;11.454;2022-12-04T02:25:56;16.10;;;14.60;;
32812;SDS011;19162;48.254;11.454;2022-12-04T02:32:13;17.77;;;15.55;;
32812;SDS011;19162;48.254;11.454;2022-12-04T02:35:17;17.67;;;15.93;;
32812;SDS011;19162;48.254;11.454;2022-12-04T02:41:26;17.63;;;15.87;;
32812;SDS011;19162;48.254;11.454;2022-12-04T02:44:31;19.33;;;17.35;;
32812;SDS011;19162;48.254;11.454;2022-12-04T02:47:33;26.92;;;17.67;;
32812;SDS011;19162;48.254;11.454;2022-12-04T02:50:36;23.15;;;16.95;;
32812;SDS011;19162;48.254;11.454;2022-12-04T02:53:39;25.98;;;16.80;;
32812;SDS011;19162;48.254;11.454;2022-12-04T02:56:41;21.42;;;17.33;;
32812;SDS011;19162;48.254;11.454;2022-12-04T02:59:42;22.55;;;15.68;;
32812;SDS011;19162;48.254;11.454;2022-12-04T03:02:49;18.30;;;16.40;;
32812;SDS011;19162;48.254;11.454;2022-12-04T03:05:53;16.63;;;14.90;;
32812;SDS011;19162;48.254;11.454;2022-12-04T03:08:57;17.30;;;14.93;;
32812;SDS011;19162;48.254;11.454;2022-12-04T03:15:36;17.92;;;15.68;;
32812;SDS011;19162;48.254;11.454;2022-12-04T03:22:06;27.52;;;16.92;;
32812;SDS011;19162;48.254;11.454;2022-12-04T03:25:07;24.02;;;16.17;;
32812;SDS011;19162;48.254;11.454;2022-12-04T03:28:09;17.88;;;15.55;;
32812;SDS011;19162;48.254;11.454;2022-12-04T03:31:13;21.63;;;16.98;;
32812;SDS011;19162;48.254;11.454;2022-12-04T03:34:14;22.23;;;16.45;;
32812;SDS011;19162;48.254;11.454;2022-12-04T03:37:19;17.75;;;15.65;;
32812;SDS011;19162;48.254;11.454;2022-12-04T03:40:22;19.70;;;16.50;;
32812;SDS011;19162;48.254;11.454;2022-12-04T03:49:28;22.27;;;16.65;;
32812;SDS011;19162;48.254;11.454;2022-12-04T03:55:35;17.17;;;15.48;;
32812;SDS011;19162;48.254;11.454;2022-12-04T03:58:40;17.13;;;14.45;;
32812;SDS011;19162;48.254;11.454;2022-12-04T04:04:42;18.00;;;14.85;;
32812;SDS011;19162;48.254;11.454;2022-12-04T04:07:48;17.37;;;15.60;;
32812;SDS011;19162;48.254;11.454;2022-12-04T04:10:50;21.13;;;15.88;;
32812;SDS011;19162;48.254;11.454;2022-12-04T04:13:56;18.10;;;14.45;;
32812;SDS011;19162;48.254;11.454;2022-12-04T04:17:16;18.67;;;15.13;;
32812;SDS011;19162;48.254;11.454;2022-12-04T04:20:45;15.73;;;13.85;;
32812;SDS011;19162;48.254;11.454;2022-12-04T04:24:06;17.45;;;15.27;;
32812;SDS011;19162;48.254;11.454;2022-12-04T04:27:15;18.25;;;15.80;;
32812;SDS011;19162;48.254;11.454;2022-12-04T04:30:15;18.87;;;15.20;;
32812;SDS011;19162;48.254;11.454;2022-12-04T04:33:16;16.63;;;14.88;;
32812;SDS011;19162;48.254;11.454;2022-12-04T04:36:27;15.68;;;13.98;;
32812;SDS011;19162;48.254;11.454;2022-12-04T04:39:37;15.60;;;14.00;;
32812;SDS011;19162;48.254;11.454;2022-12-04T04:42:42;15.93;;;14.50;;
32812;SDS011;19162;48.254;11.454;2022-12-04T04:45:44;21.73;;;15.85;;
32812;SDS011;19162;48.254;11.454;2022-12-04T04:48:46;17.63;;;14.18;;
32812;SDS011;19162;48.254;11.454;2022-12-04T04:51:47;18.73;;;16.15;;
32812;SDS011;19162;48.254;11.454;2022-12-04T04:54:48;19.30;;;17.30;;
32812;SDS011;19162;48.254;11.454;2022-12-04T04:57:48;19.35;;;17.45;;
32812;SDS011;19162;48.254;11.454;2022-12-04T05:01:02;20.77;;;18.67;;
32812;SDS011;19162;48.254;11.454;2022-12-04T05:04:03;18.98;;;17.08;;
32812;SDS011;19162;48.254;11.454;2022-12-04T05:07:03;19.00;;;16.00;;
32812;SDS011;19162;48.254;11.454;2022-12-04T05:10:04;19.63;;;17.55;;
32812;SDS011;19162;48.254;11.454;2022-12-04T05:13:04;19.55;;;17.75;;
32812;SDS011;19162;48.254;11.454;2022-12-04T05:16:05;22.17;;;17.17;;
32812;SDS011;19162;48.254;11.454;2022-12-04T05:19:06;19.15;;;17.27;;
32812;SDS011;19162;48.254;11.454;2022-12-04T05:25:25;17.27;;;15.57;;
32812;SDS011;19162;48.254;11.454;2022-12-04T05:28:25;17.90;;;14.93;;
32812;SDS011;19162;48.254;11.454;2022-12-04T05:31:26;18.38;;;16.50;;
32812;SDS011;19162;48.254;11.454;2022-12-04T05:34:26;19.45;;;17.45;;
32812;SDS011;19162;48.254;11.454;2022-12-04T05:37:26;18.98;;;17.17;;
32812;SDS011;19162;48.254;11.454;2022-12-04T05:40:27;18.57;;;16.53;;
32812;SDS011;19162;48.254;11.454;2022-12-04T05:43:27;18.45;;;16.55;;
32812;SDS011;19162;48.254;11.454;2022-12-04T05:46:27;18.33;;;16.63;;
32812;SDS011;19162;48.254;11.454;2022-12-04T05:49:28;18.92;;;17.02;;
32812;SDS011;19162;48.254;11.454;2022-12-04T05:52:28;18.05;;;16.15;;
32812;SDS011;19162;48.254;11.454;2022-12-04T05:55:28;18.73;;;16.80;;
32812;SDS011;19162;48.254;11.454;2022-12-04T05:58:29;19.33;;;16.40;;
32812;SDS011;19162;48.254;11.454;2022-12-04T06:01:29;19.20;;;17.17;;
32812;SDS011;19162;48.254;11.454;2022-12-04T06:04:29;18.50;;;16.60;;
32812;SDS011;19162;48.254;11.454;2022-12-04T06:07:29;19.33;;;16.83;;
32812;SDS011;19162;48.254;11.454;2022-12-04T06:10:29;20.10;;;18.17;;
32812;SDS011;19162;48.254;11.454;2022-12-04T06:13:29;20.97;;;18.83;;
32812;SDS011;19162;48.254;11.454;2022-12-04T06:16:31;20.27;;;16.80;;
32812;SDS011;19162;48.254;11.454;2022-12-04T06:19:31;18.75;;;16.90;;
32812;SDS011;19162;48.254;11.454;2022-12-04T06:22:31;18.15;;;16.35;;
32812;SDS011;19162;48.254;11.454;2022-12-04T06:25:31;16.65;;;15.15;;
32812;SDS011;19162;48.254;11.454;2022-12-04T06:28:33;16.33;;;14.90;;
32812;SDS011;19162;48.254;11.454;2022-12-04T06:31:33;17.00;;;15.48;;
32812;SDS011;19162;48.254;11.454;2022-12-04T06:34:35;16.70;;;15.15;;
32812;SDS011;19162;48.254;11.454;2022-12-04T06:37:35;18.67;;;16.83;;
32812;SDS011;19162;48.254;11.454;2022-12-04T06:40:38;18.10;;;14.77;;
32812;SDS011;19162;48.254;11.454;2022-12-04T06:43:38;16.63;;;15.18;;
32812;SDS011;19162;48.254;11.454;2022-12-04T06:46:39;16.67;;;15.18;;
32812;SDS011;19162;48.254;11.454;2022-12-04T06:49:39;16.58;;;15.18;;
32812;SDS011;19162;48.254;11.454;2022-12-04T06:52:40;17.83;;;16.20;;
32812;SDS011;19162;48.254;11.454;2022-12-04T06:55:45;18.38;;;16.55;;
32812;SDS011;19162;48.254;11.454;2022-12-04T06:58:46;14.23;;;12.82;;
32812;SDS011;19162;48.254;11.454;2022-12-04T07:01:47;17.08;;;15.38;;
32812;SDS011;19162;48.254;11.454;2022-12-04T07:04:47;18.57;;;16.23;;
32812;SDS011;19162;48.254;11.454;2022-12-04T07:07:47;18.98;;;17.20;;
32812;SDS011;19162;48.254;11.454;2022-12-04T07:10:47;17.35;;;15.80;;
32812;SDS011;19162;48.254;11.454;2022-12-04T07:13:48;18.03;;;16.17;;
32812;SDS011;19162;48.254;11.454;2022-12-04T07:16:48;19.27;;;16.70;;
32812;SDS011;19162;48.254;11.454;2022-12-04T07:19:48;25.50;;;21.80;;
32812;SDS011;19162;48.254;11.454;2022-12-04T07:22:48;21.33;;;16.58;;
32812;SDS011;19162;48.254;11.454;2022-12-04T07:25:49;21.27;;;17.77;;
32812;SDS011;19162;48.254;11.454;2022-12-04T07:28:49;25.70;;;17.87;;
32812;SDS011;19162;48.254;11.454;2022-12-04T07:31:50;18.17;;;14.77;;
32812;SDS011;19162;48.254;11.454;2022-12-04T07:34:50;20.33;;;15.23;;
32812;SDS011;19162;48.254;11.454;2022-12-04T07:37:50;25.42;;;16.65;;
32812;SDS011;19162;48.254;11.454;2022-12-04T07:40:50;23.70;;;17.27;;
32812;SDS011;19162;48.254;11.454;2022-12-04T07:43:50;39.63;;;18.58;;
32812;SDS011;19162;48.254;11.454;2022-12-04T07:46:50;25.10;;;16.20;;
32812;SDS011;19162;48.254;11.454;2022-12-04T07:49:51;20.83;;;17.23;;
32812;SDS011;19162;48.254;11.454;2022-12-04T07:52:51;18.42;;;16.52;;
32812;SDS011;19162;48.254;11.454;2022-12-04T07:55:51;26.90;;;20.92;;
32812;SDS011;19162;48.254;11.454;2022-12-04T07:58:52;23.83;;;17.83;;
32812;SDS011;19162;48.254;11.454;2022-12-04T08:01:52;31.20;;;23.13;;
32812;SDS011;19162;48.254;11.454;2022-12-04T08:04:52;22.10;;;19.77;;
32812;SDS011;19162;48.254;11.454;2022-12-04T08:07:52;19.63;;;17.27;;
32812;SDS011;19162;48.254;11.454;2022-12-04T08:10:53;20.15;;;16.58;;
32812;SDS011;19162;48.254;11.454;2022-12-04T08:13:57;19.27;;;15.60;;
32812;SDS011;19162;48.254;11.454;2022-12-04T08:16:57;22.52;;;15.45;;
32812;SDS011;19162;48.254;11.454;2022-12-04T08:19:58;21.97;;;17.00;;
32812;SDS011;19162;48.254;11.454;2022-12-04T08:22:58;20.63;;;15.77;;
32812;SDS011;19162;48.254;11.454;2022-12-04T08:25:58;18.63;;;15.50;;
32812;SDS011;19162;48.254;11.454;2022-12-04T08:28:59;23.83;;;16.20;;
32812;SDS011;19162;48.254;11.454;2022-12-04T08:32:03;26.30;;;15.90;;
32812;SDS011;19162;48.254;11.454;2022-12-04T08:35:03;25.33;;;16.10;;
32812;SDS011;19162;48.254;11.454;2022-12-04T08:38:03;22.77;;;15.88;;
32812;SDS011;19162;48.254;11.454;2022-12-04T08:41:04;27.27;;;15.55;;
32812;SDS011;19162;48.254;11.454;2022-12-04T08:44:05;22.52;;;15.07;;
32812;SDS011;19162;48.254;11.454;2022-12-04T08:47:05;20.08;;;15.38;;
32812;SDS011;19162;48.254;11.454;2022-12-04T08:50:06;26.40;;;16.10;;
32812;SDS011;19162;48.254;11.454;2022-12-04T08:53:06;18.00;;;15.10;;
32812;SDS011;19162;48.254;11.454;2022-12-04T08:56:06;24.10;;;16.10;;
32812;SDS011;19162;48.254;11.454;2022-12-04T08:59:08;22.92;;;15.82;;
32812;SDS011;19162;48.254;11.454;2022-12-04T09:02:10;29.63;;;14.57;;
32812;SDS011;19162;48.254;11.454;2022-12-04T09:05:10;21.70;;;15.98;;
32812;SDS011;19162;48.254;11.454;2022-12-04T09:08:11;14.32;;;13.02;;
32812;SDS011;19162;48.254;11.454;2022-12-04T09:11:16;20.20;;;16.08;;
32812;SDS011;19162;48.254;11.454;2022-12-04T09:14:17;20.85;;;16.77;;
32812;SDS011;19162;48.254;11.454;2022-12-04T09:17:18;23.88;;;16.10;;
32812;SDS011;19162;48.254;11.454;2022-12-04T09:20:18;18.25;;;16.27;;
32812;SDS011;19162;48.254;11.454;2022-12-04T09:23:18;22.52;;;16.50;;
32812;SDS011;19162;48.254;11.454;2022-12-04T09:26:20;18.02;;;15.57;;
32812;SDS011;19162;48.254;11.454;2022-12-04T09:29:20;18.15;;;16.48;;
32812;SDS011;19162;48.254;11.454;2022-12-04T09:32:21;18.17;;;16.27;;
32812;SDS011;19162;48.254;11.454;2022-12-04T09:35:21;18.83;;;16.30;;
32812;SDS011;19162;48.254;11.454;2022-12-04T09:38:21;20.73;;;18.53;;
32812;SDS011;19162;48.254;11.454;2022-12-04T09:44:51;18.63;;;16.77;;
32812;SDS011;19162;48.254;11.454;2022-12-04T09:47:53;19.80;;;17.80;;
32812;SDS011;19162;48.254;11.454;2022-12-04T09:50:55;22.88;;;19.23;;
32812;SDS011;19162;48.254;11.454;2022-12-04T09:54:01;24.52;;;20.77;;
32812;SDS011;19162;48.254;11.454;2022-12-04T09:57:04;20.77;;;18.75;;
32812;SDS011;19162;48.254;11.454;2022-12-04T10:00:10;22.02;;;19.73;;
32812;SDS011;19162;48.254;11.454;2022-12-04T10:03:15;20.73;;;18.87;;
32812;SDS011;19162;48.254;11.454;2022-12-04T10:06:22;19.25;;;17.35;;
32812;SDS011;19162;48.254;11.454;2022-12-04T10:15:53;21.73;;;19.52;;
32812;SDS011;19162;48.254;11.454;2022-12-04T10:25:20;20.90;;;18.88;;
32812;SDS011;19162;48.254;11.454;2022-12-04T10:28:25;22.02;;;20.05;;
32812;SDS011;19162;48.254;11.454;2022-12-04T10:31:28;19.88;;;17.88;;
32812;SDS011;19162;48.254;11.454;2022-12-04T10:34:29;20.90;;;18.70;;
32812;SDS011;19162;48.254;11.454;2022-12-04T10:37:30;21.40;;;19.20;;
32812;SDS011;19162;48.254;11.454;2022-12-04T10:40:45;21.35;;;19.30;;
32812;SDS011;19162;48.254;11.454;2022-12-04T10:43:49;22.92;;;20.80;;
32812;SDS011;19162;48.254;11.454;2022-12-04T10:46:49;25.05;;;22.63;;
32812;SDS011;19162;48.254;11.454;2022-12-04T10:49:55;25.20;;;22.13;;
32812;SDS011;19162;48.254;11.454;2022-12-04T10:52:56;21.27;;;18.08;;
32812;SDS011;19162;48.254;11.454;2022-12-04T10:56:06;23.63;;;19.70;;
32812;SDS011;19162;48.254;11.454;2022-12-04T10:59:12;20.85;;;18.85;;
32812;SDS011;19162;48.254;11.454;2022-12-04T11:05:22;20.77;;;18.77;;
32812;SDS011;19162;48.254;11.454;2022-12-04T11:08:24;22.45;;;20.13;;
32812;SDS011;19162;48.254;11.454;2022-12-04T11:11:28;22.77;;;20.60;;
32812;SDS011;19162;48.254;11.454;2022-12-04T11:14:29;26.50;;;20.95;;
32812;SDS011;19162;48.254;11.454;2022-12-04T11:17:30;25.23;;;21.48;;
32812;SDS011;19162;48.254;11.454;2022-12-04T11:20:30;23.43;;;21.03;;
32812;SDS011;19162;48.254;11.454;2022-12-04T11:23:31;21.73;;;19.50;;
32812;SDS011;19162;48.254;11.454;2022-12-04T11:26:34;23.97;;;21.43;;
32812;SDS011;19162;48.254;11.454;2022-12-04T11:29:36;24.45;;;21.15;;
32812;SDS011;19162;48.254;11.454;2022-12-04T11:32:37;22.00;;;19.75;;
32812;SDS011;19162;48.254;11.454;2022-12-04T11:35:37;21.20;;;19.00;;
32812;SDS011;19162;48.254;11.454;2022-12-04T11:38:38;19.63;;;17.73;;
32812;SDS011;19162;48.254;11.454;2022-12-04T11:41:38;22.40;;;20.20;;
32812;SDS011;19162;48.254;11.454;2022-12-04T11:44:39;23.27;;;20.77;;
32812;SDS011;19162;48.254;11.454;2022-12-04T11:47:55;25.40;;;22.90;;
32812;SDS011;19162;48.254;11.454;2022-12-04T11:51:02;22.60;;;20.20;;
32812;SDS011;19162;48.254;11.454;2022-12-04T12:00:21;22.42;;;20.02;;
32812;SDS011;19162;48.254;11.454;2022-12-04T12:03:33;21.15;;;18.92;;
32812;SDS011;19162;48.254;11.454;2022-12-04T12:06:38;20.73;;;18.50;;
32812;SDS011;19162;48.254;11.454;2022-12-04T12:12:55;20.80;;;18.63;;
32812;SDS011;19162;48.254;11.454;2022-12-04T12:19:02;21.27;;;19.17;;
32812;SDS011;19162;48.254;11.454;2022-12-04T12:22:11;20.88;;;18.75;;
32812;SDS011;19162;48.254;11.454;2022-12-04T12:34:41;21.10;;;18.95;;
32812;SDS011;19162;48.254;11.454;2022-12-04T12:37:51;21.63;;;19.38;;
32812;SDS011;19162;48.254;11.454;2022-12-04T12:40:54;22.40;;;19.88;;
32812;SDS011;19162;48.254;11.454;2022-12-04T12:44:03;23.02;;;19.27;;
32812;SDS011;19162;48.254;11.454;2022-12-04T12:47:26;20.85;;;18.80;;
32812;SDS011;19162;48.254;11.454;2022-12-04T12:50:28;19.95;;;18.10;;
32812;SDS011;19162;48.254;11.454;2022-12-04T12:53:37;22.08;;;19.73;;
32812;SDS011;19162;48.254;11.454;2022-12-04T12:56:39;22.63;;;20.33;;
32812;SDS011;19162;48.254;11.454;2022-12-04T12:59:41;23.13;;;19.90;;
32812;SDS011;19162;48.254;11.454;2022-12-04T13:03:00;22.88;;;18.83;;
32812;SDS011;19162;48.254;11.454;2022-12-04T13:06:04;6.13;;;5.53;;
32812;SDS011;19162;48.254;11.454;2022-12-04T13:09:08;20.23;;;18.23;;
32812;SDS011;19162;48.254;11.454;2022-12-04T13:12:11;21.58;;;19.38;;
32812;SDS011;19162;48.254;11.454;2022-12-04T13:15:16;23.13;;;20.67;;
32812;SDS011;19162;48.254;11.454;2022-12-04T13:18:28;21.75;;;19.52;;
32812;SDS011;19162;48.254;11.454;2022-12-04T13:24:52;21.33;;;19.15;;
32812;SDS011;19162;48.254;11.454;2022-12-04T13:34:24;23.60;;;20.95;;
32812;SDS011;19162;48.254;11.454;2022-12-04T13:37:29;22.63;;;18.95;;
32812;SDS011;19162;48.254;11.454;2022-12-04T13:40:33;25.42;;;19.27;;
32812;SDS011;19162;48.254;11.454;2022-12-04T13:46:38;20.77;;;18.77;;
32812;SDS011;19162;48.254;11.454;2022-12-04T13:49:39;22.27;;;19.70;;
32812;SDS011;19162;48.254;11.454;2022-12-04T13:52:45;26.10;;;19.30;;
32812;SDS011;19162;48.254;11.454;2022-12-04T13:55:53;22.83;;;20.52;;
32812;SDS011;19162;48.254;11.454;2022-12-04T13:59:18;23.08;;;20.83;;
32812;SDS011;19162;48.254;11.454;2022-12-04T14:02:24;23.92;;;21.63;;
32812;SDS011;19162;48.254;11.454;2022-12-04T14:05:28;30.35;;;27.10;;
32812;SDS011;19162;48.254;11.454;2022-12-04T14:08:32;21.83;;;19.10;;
32812;SDS011;19162;48.254;11.454;2022-12-04T14:11:44;19.77;;;17.67;;
32812;SDS011;19162;48.254;11.454;2022-12-04T14:14:51;19.45;;;17.38;;
32812;SDS011;19162;48.254;11.454;2022-12-04T14:21:02;23.35;;;20.85;;
32812;SDS011;19162;48.254;11.454;2022-12-04T14:24:12;24.55;;;21.95;;
32812;SDS011;19162;48.254;11.454;2022-12-04T14:27:33;29.40;;;21.55;;
32812;SDS011;19162;48.254;11.454;2022-12-04T14:30:41;25.65;;;21.27;;
32812;SDS011;19162;48.254;11.454;2022-12-04T14:33:43;23.63;;;21.23;;
32812;SDS011;19162;48.254;11.454;2022-12-04T14:36:44;24.52;;;20.80;;
32812;SDS011;19162;48.254;11.454;2022-12-04T14:39:46;23.40;;;20.90;;
32812;SDS011;19162;48.254;11.454;2022-12-04T14:42:47;29.35;;;21.10;;
32812;SDS011;19162;48.254;11.454;2022-12-04T14:52:27;28.08;;;25.13;;
32812;SDS011;19162;48.254;11.454;2022-12-04T14:58:29;30.90;;;22.77;;
32812;SDS011;19162;48.254;11.454;2022-12-04T15:01:35;35.13;;;27.35;;
32812;SDS011;19162;48.254;11.454;2022-12-04T15:04:36;31.00;;;25.42;;
32812;SDS011;19162;48.254;11.454;2022-12-04T15:07:43;33.67;;;27.42;;
32812;SDS011;19162;48.254;11.454;2022-12-04T15:10:49;31.17;;;24.48;;
32812;SDS011;19162;48.254;11.454;2022-12-04T15:14:12;30.20;;;24.65;;
32812;SDS011;19162;48.254;11.454;2022-12-04T15:17:15;28.60;;;25.65;;
32812;SDS011;19162;48.254;11.454;2022-12-04T15:20:16;33.55;;;26.50;;
32812;SDS011;19162;48.254;11.454;2022-12-04T15:26:18;28.17;;;25.27;;
32812;SDS011;19162;48.254;11.454;2022-12-04T15:29:20;25.75;;;22.80;;
32812;SDS011;19162;48.254;11.454;2022-12-04T15:32:22;29.10;;;25.97;;
32812;SDS011;19162;48.254;11.454;2022-12-04T15:35:27;37.10;;;30.73;;
32812;SDS011;19162;48.254;11.454;2022-12-04T15:38:28;26.50;;;23.70;;
32812;SDS011;19162;48.254;11.454;2022-12-04T15:41:30;16.70;;;14.53;;
32812;SDS011;19162;48.254;11.454;2022-12-04T15:44:32;23.42;;;21.13;;
32812;SDS011;19162;48.254;11.454;2022-12-04T15:47:53;26.05;;;23.38;;
32812;SDS011;19162;48.254;11.454;2022-12-04T15:50:56;28.20;;;25.13;;
32812;SDS011;19162;48.254;11.454;2022-12-04T15:53:57;28.38;;;25.48;;
32812;SDS011;19162;48.254;11.454;2022-12-04T15:57:01;26.50;;;23.65;;
32812;SDS011;19162;48.254;11.454;2022-12-04T16:00:03;25.92;;;23.38;;
32812;SDS011;19162;48.254;11.454;2022-12-04T16:06:23;25.83;;;23.05;;
32812;SDS011;19162;48.254;11.454;2022-12-04T16:09:25;24.85;;;22.25;;
32812;SDS011;19162;48.254;11.454;2022-12-04T16:12:26;25.10;;;22.50;;
32812;SDS011;19162;48.254;11.454;2022-12-04T16:15:37;22.47;;;20.17;;
32812;SDS011;19162;48.254;11.454;2022-12-04T16:18:38;23.52;;;21.13;;
32812;SDS011;19162;48.254;11.454;2022-12-04T16:21:38;23.75;;;21.23;;
32812;SDS011;19162;48.254;11.454;2022-12-04T16:24:39;23.23;;;20.88;;
32812;SDS011;19162;48.254;11.454;2022-12-04T16:27:40;21.75;;;19.42;;
32812;SDS011;19162;48.254;11.454;2022-12-04T16:30:40;22.48;;;20.20;;
32812;SDS011;19162;48.254;11.454;2022-12-04T16:33:40;21.43;;;19.13;;
32812;SDS011;19162;48.254;11.454;2022-12-04T16:36:40;21.55;;;19.27;;
32812;SDS011;19162;48.254;11.454;2022-12-04T16:39:41;23.30;;;21.03;;
32812;SDS011;19162;48.254;11.454;2022-12-04T16:42:41;24.63;;;22.03;;
32812;SDS011;19162;48.254;11.454;2022-12-04T16:45:50;22.48;;;20.15;;
32812;SDS011;19162;48.254;11.454;2022-12-04T16:48:50;20.27;;;17.95;;
32812;SDS011;19162;48.254;11.454;2022-12-04T16:51:50;15.75;;;14.15;;
32812;SDS011;19162;48.254;11.454;2022-12-04T16:54:51;21.02;;;18.83;;
32812;SDS011;19162;48.254;11.454;2022-12-04T16:57:51;23.53;;;21.17;;
32812;SDS011;19162;48.254;11.454;2022-12-04T17:00:52;22.30;;;20.03;;
32812;SDS011;19162;48.254;11.454;2022-12-04T17:03:53;23.73;;;21.23;;
32812;SDS011;19162;48.254;11.454;2022-12-04T17:06:53;22.30;;;20.10;;
32812;SDS011;19162;48.254;11.454;2022-12-04T17:09:53;22.00;;;19.70;;
32812;SDS011;19162;48.254;11.454;2022-12-04T17:12:53;22.90;;;20.53;;
32812;SDS011;19162;48.254;11.454;2022-12-04T17:15:54;23.37;;;21.00;;
32812;SDS011;19162;48.254;11.454;2022-12-04T17:18:56;23.63;;;20.17;;
32812;SDS011;19162;48.254;11.454;2022-12-04T17:21:56;19.07;;;17.10;;
32812;SDS011;19162;48.254;11.454;2022-12-04T17:24:57;22.33;;;20.15;;
32812;SDS011;19162;48.254;11.454;2022-12-04T17:27:57;23.75;;;21.38;;
32812;SDS011;19162;48.254;11.454;2022-12-04T17:30:57;20.00;;;18.10;;
32812;SDS011;19162;48.254;11.454;2022-12-04T17:33:58;19.67;;;17.77;;
32812;SDS011;19162;48.254;11.454;2022-12-04T17:36:58;17.15;;;15.35;;
32812;SDS011;19162;48.254;11.454;2022-12-04T17:39:58;20.70;;;18.67;;
32812;SDS011;19162;48.254;11.454;2022-12-04T17:42:58;18.05;;;16.35;;
32812;SDS011;19162;48.254;11.454;2022-12-04T17:45:59;19.17;;;17.37;;
32812;SDS011;19162;48.254;11.454;2022-12-04T17:48:59;24.27;;;21.83;;
32812;SDS011;19162;48.254;11.454;2022-12-04T17:51:59;20.67;;;18.77;;
32812;SDS011;19162;48.254;11.454;2022-12-04T17:54:59;22.73;;;20.47;;
32812;SDS011;19162;48.254;11.454;2022-12-04T17:58:00;19.13;;;17.23;;
32812;SDS011;19162;48.254;11.454;2022-12-04T18:01:04;20.73;;;18.77;;
32812;SDS011;19162;48.254;11.454;2022-12-04T18:04:05;20.48;;;18.50;;
32812;SDS011;19162;48.254;11.454;2022-12-04T18:07:06;20.42;;;18.33;;
32812;SDS011;19162;48.254;11.454;2022-12-04T18:10:07;20.63;;;18.52;;
32812;SDS011;19162;48.254;11.454;2022-12-04T18:13:07;22.53;;;20.33;;
32812;SDS011;19162;48.254;11.454;2022-12-04T18:16:08;22.63;;;20.40;;
32812;SDS011;19162;48.254;11.454;2022-12-04T18:19:09;21.05;;;18.98;;
32812;SDS011;19162;48.254;11.454;2022-12-04T18:22:09;23.00;;;20.70;;
32812;SDS011;19162;48.254;11.454;2022-12-04T18:25:10;22.70;;;20.43;;
32812;SDS011;19162;48.254;11.454;2022-12-04T18:28:10;23.67;;;21.40;;
32812;SDS011;19162;48.254;11.454;2022-12-04T18:31:10;22.77;;;20.58;;
32812;SDS011;19162;48.254;11.454;2022-12-04T18:34:11;19.95;;;17.88;;
32812;SDS011;19162;48.254;11.454;2022-12-04T18:37:11;19.38;;;17.48;;
32812;SDS011;19162;48.254;11.454;2022-12-04T18:40:12;19.60;;;17.67;;
32812;SDS011;19162;48.254;11.454;2022-12-04T18:43:12;19.40;;;17.33;;
32812;SDS011;19162;48.254;11.454;2022-12-04T18:46:15;20.10;;;18.20;;
32812;SDS011;19162;48.254;11.454;2022-12-04T18:49:15;19.73;;;17.30;;
32812;SDS011;19162;48.254;11.454;2022-12-04T18:52:15;19.43;;;17.50;;
32812;SDS011;19162;48.254;11.454;2022-12-04T18:55:16;20.05;;;18.00;;
32812;SDS011;19162;48.254;11.454;2022-12-04T18:58:16;19.60;;;17.70;;
32812;SDS011;19162;48.254;11.454;2022-12-04T19:01:17;20.58;;;18.70;;
32812;SDS011;19162;48.254;11.454;2022-12-04T19:04:18;20.95;;;19.02;;
32812;SDS011;19162;48.254;11.454;2022-12-04T19:07:19;19.63;;;17.73;;
32812;SDS011;19162;48.254;11.454;2022-12-04T19:10:19;17.10;;;15.50;;
32812;SDS011;19162;48.254;11.454;2022-12-04T19:13:19;19.50;;;17.60;;
32812;SDS011;19162;48.254;11.454;2022-12-04T19:16:19;20.95;;;18.75;;
32812;SDS011;19162;48.254;11.454;2022-12-04T19:19:20;20.73;;;18.60;;